createdAt,value
2022-12-31T00:01:57.009Z,-0.06
2022-12-31T00:04:33.607Z,-0.10
2022-12-31T00:07:09.900Z,-0.10
2022-12-31T00:09:46.453Z,-0.10
2022-12-31T00:12:22.918Z,-0.10
2022-12-31T00:14:59.288Z,-0.20
2022-12-31T00:17:35.849Z,-0.20
2022-12-31T00:20:14.213Z,-0.20
2022-12-31T00:22:50.625Z,-0.30
2022-12-31T00:25:27.192Z,-0.30
2022-12-31T00:28:03.768Z,-0.40
2022-12-31T00:30:43.750Z,-0.40
2022-12-31T00:33:20.076Z,-0.40
2022-12-31T00:35:56.337Z,-0.50
2022-12-31T00:38:32.708Z,-0.50
2022-12-31T00:41:10.029Z,-0.56
2022-12-31T00:43:47.216Z,-0.60
2022-12-31T00:46:25.158Z,-0.60
2022-12-31T00:49:01.960Z,-0.60
2022-12-31T00:51:38.228Z,-0.60
2022-12-31T00:54:14.793Z,-0.56
2022-12-31T00:56:51.173Z,-0.50
2022-12-31T00:59:27.840Z,-0.50
2022-12-31T01:02:04.408Z,-0.50
2022-12-31T01:04:40.977Z,-0.50
2022-12-31T01:07:17.260Z,-0.50
2022-12-31T01:09:54.564Z,-0.48
2022-12-31T01:12:31.878Z,-0.46
2022-12-31T01:15:10.426Z,-0.40
2022-12-31T01:17:46.716Z,-0.40
2022-12-31T01:20:23.364Z,-0.40
2022-12-31T01:22:59.748Z,-0.34
2022-12-31T01:25:37.907Z,-0.30
2022-12-31T01:28:14.403Z,-0.24
2022-12-31T01:30:50.677Z,-0.20
2022-12-31T01:33:27.484Z,-0.10
2022-12-31T01:36:09.473Z,-0.10
2022-12-31T01:38:46.503Z,-0.02
2022-12-31T01:41:27.095Z,0.00
2022-12-31T01:44:20.000Z,0.00
2022-12-31T01:47:01.585Z,0.00
2022-12-31T01:49:45.825Z,0.08
2022-12-31T01:52:29.914Z,0.10
2022-12-31T01:55:19.259Z,0.10
2022-12-31T01:58:02.483Z,0.10
2022-12-31T02:00:39.700Z,0.10
2022-12-31T02:03:17.427Z,0.10
2022-12-31T02:06:04.169Z,0.10
2022-12-31T02:08:42.582Z,0.10
2022-12-31T02:11:36.604Z,0.20
2022-12-31T02:14:17.860Z,0.20
2022-12-31T02:17:09.022Z,0.20
2022-12-31T02:21:02.570Z,0.20
2022-12-31T02:24:33.681Z,0.30
2022-12-31T02:27:25.177Z,0.30
2022-12-31T02:30:20.633Z,0.30
2022-12-31T02:33:23.455Z,0.30
2022-12-31T02:36:06.714Z,0.40
2022-12-31T02:38:48.947Z,0.40
2022-12-31T02:41:43.969Z,0.40
2022-12-31T02:44:32.730Z,0.50
2022-12-31T02:47:29.801Z,0.50
2022-12-31T02:50:33.215Z,0.58
2022-12-31T02:53:31.763Z,0.60
2022-12-31T02:56:20.128Z,0.60
2022-12-31T02:59:34.728Z,0.60
2022-12-31T03:02:19.828Z,0.70
2022-12-31T03:05:02.112Z,0.70
2022-12-31T03:07:40.837Z,0.70
2022-12-31T03:10:17.116Z,0.80
2022-12-31T03:12:53.595Z,0.80
2022-12-31T03:15:33.247Z,0.80
2022-12-31T03:18:13.525Z,0.80
2022-12-31T03:21:11.243Z,0.82
2022-12-31T03:24:06.460Z,0.88
2022-12-31T03:26:42.900Z,0.90
2022-12-31T03:29:19.183Z,0.90
2022-12-31T03:31:55.856Z,0.90
2022-12-31T03:34:32.081Z,0.94
2022-12-31T03:37:08.480Z,0.96
2022-12-31T03:39:44.949Z,0.94
2022-12-31T03:42:21.217Z,1.00
2022-12-31T03:44:57.585Z,1.00
2022-12-31T03:47:33.947Z,1.00
2022-12-31T03:50:14.940Z,1.00
2022-12-31T03:52:51.326Z,1.00
2022-12-31T03:55:27.920Z,1.00
2022-12-31T03:58:04.588Z,1.00
2022-12-31T04:00:40.935Z,1.00
2022-12-31T04:03:17.332Z,1.00
2022-12-31T04:05:59.651Z,1.00
2022-12-31T04:08:36.039Z,1.00
2022-12-31T04:11:17.400Z,1.00
2022-12-31T04:13:56.819Z,0.94
2022-12-31T04:16:33.161Z,1.00
2022-12-31T04:19:09.471Z,0.98
2022-12-31T04:21:46.501Z,1.00
2022-12-31T04:24:23.034Z,1.06
2022-12-31T04:27:05.416Z,1.10
2022-12-31T04:29:43.995Z,1.20
2022-12-31T04:32:20.288Z,1.26
2022-12-31T04:34:57.100Z,1.30
2022-12-31T04:37:33.561Z,1.30
2022-12-31T04:40:12.796Z,1.34
2022-12-31T04:42:49.099Z,1.40
2022-12-31T04:45:25.510Z,1.40
2022-12-31T04:48:01.719Z,1.50
2022-12-31T04:50:38.031Z,1.56
2022-12-31T04:53:14.426Z,1.60
2022-12-31T04:55:51.739Z,1.66
2022-12-31T04:58:28.478Z,1.70
2022-12-31T05:01:05.427Z,1.70
2022-12-31T05:03:42.198Z,1.70
2022-12-31T05:06:22.808Z,1.76
2022-12-31T05:08:59.026Z,1.80
2022-12-31T05:11:35.852Z,1.80
2022-12-31T05:14:12.114Z,1.90
2022-12-31T05:16:49.082Z,1.98
2022-12-31T05:19:25.585Z,2.00
2022-12-31T05:22:19.603Z,2.10
2022-12-31T05:24:55.987Z,2.18
2022-12-31T05:27:33.370Z,2.20
2022-12-31T05:30:13.223Z,2.30
2022-12-31T05:32:49.897Z,2.40
2022-12-31T05:35:26.892Z,2.46
2022-12-31T05:38:04.101Z,2.50
2022-12-31T05:40:40.567Z,2.50
2022-12-31T05:43:17.198Z,2.54
2022-12-31T05:45:53.901Z,2.60
2022-12-31T05:48:30.460Z,2.60
2022-12-31T05:51:07.581Z,2.68
2022-12-31T05:53:43.897Z,2.70
2022-12-31T05:56:20.736Z,2.70
2022-12-31T05:58:57.034Z,2.70
2022-12-31T06:01:33.437Z,2.70
2022-12-31T06:04:10.187Z,2.70
2022-12-31T06:06:46.537Z,2.70
2022-12-31T06:09:23.621Z,2.72
2022-12-31T06:11:59.866Z,2.70
2022-12-31T06:14:40.787Z,2.70
2022-12-31T06:17:20.804Z,2.70
2022-12-31T06:19:57.024Z,2.70
2022-12-31T06:22:33.441Z,2.72
2022-12-31T06:25:12.266Z,2.78
2022-12-31T06:27:48.725Z,2.70
2022-12-31T06:30:24.996Z,2.74
2022-12-31T06:33:02.135Z,2.80
2022-12-31T06:35:38.753Z,2.80
2022-12-31T06:38:14.967Z,2.84
2022-12-31T06:40:51.219Z,2.90
2022-12-31T06:43:27.614Z,2.90
2022-12-31T06:46:08.081Z,3.00
2022-12-31T06:48:45.631Z,3.00
2022-12-31T06:51:24.415Z,3.00
2022-12-31T06:54:00.899Z,3.00
2022-12-31T06:56:39.409Z,3.10
2022-12-31T06:59:32.582Z,3.10
2022-12-31T07:03:19.596Z,3.10
2022-12-31T07:06:03.464Z,3.10
2022-12-31T07:08:55.745Z,3.10
2022-12-31T07:11:42.152Z,3.20
2022-12-31T07:14:36.774Z,3.20
2022-12-31T07:17:31.565Z,3.20
2022-12-31T07:20:15.537Z,3.26
2022-12-31T07:22:54.006Z,3.30
2022-12-31T07:25:32.704Z,3.40
2022-12-31T07:28:27.293Z,3.50
2022-12-31T07:31:17.990Z,3.50
2022-12-31T07:34:05.890Z,3.60
2022-12-31T07:37:09.032Z,3.70
2022-12-31T07:40:02.330Z,3.72
2022-12-31T07:43:00.853Z,3.80
2022-12-31T07:45:49.232Z,3.90
2022-12-31T07:48:34.368Z,3.98
2022-12-31T07:51:15.379Z,4.00
2022-12-31T07:53:51.670Z,4.10
2022-12-31T07:56:28.138Z,4.16
2022-12-31T07:59:30.310Z,4.20
2022-12-31T08:02:15.525Z,4.30
2022-12-31T08:05:04.272Z,4.30
2022-12-31T08:07:55.298Z,4.40
2022-12-31T08:10:44.808Z,4.50
2022-12-31T08:13:22.237Z,4.60
2022-12-31T08:16:00.507Z,4.70
2022-12-31T08:18:38.621Z,4.80
2022-12-31T08:21:35.161Z,4.90
2022-12-31T08:24:31.604Z,5.00
2022-12-31T08:27:18.980Z,5.20
2022-12-31T08:30:09.330Z,5.38
2022-12-31T08:32:59.859Z,5.60
2022-12-31T08:36:03.478Z,5.80
2022-12-31T08:38:52.941Z,6.02
2022-12-31T08:41:43.190Z,6.22
2022-12-31T08:44:34.673Z,6.50
2022-12-31T08:47:42.829Z,6.70
2022-12-31T08:50:23.641Z,7.00
2022-12-31T08:53:02.495Z,7.20
2022-12-31T08:55:41.180Z,7.32
2022-12-31T08:58:41.917Z,7.50
2022-12-31T09:01:25.667Z,7.74
2022-12-31T09:04:27.541Z,7.94
2022-12-31T09:07:09.535Z,8.20
2022-12-31T09:09:52.483Z,8.36
2022-12-31T09:12:37.109Z,8.50
2022-12-31T09:15:26.175Z,8.70
2022-12-31T09:18:04.563Z,8.80
2022-12-31T09:20:44.494Z,8.92
2022-12-31T09:23:22.942Z,9.00
2022-12-31T09:26:16.497Z,9.10
2022-12-31T09:29:05.451Z,9.20
2022-12-31T09:31:51.012Z,9.30
2022-12-31T09:34:37.630Z,9.40
2022-12-31T09:37:29.525Z,9.48
2022-12-31T09:40:37.407Z,9.60
2022-12-31T09:44:04.354Z,9.70
2022-12-31T09:47:36.050Z,9.84
2022-12-31T09:50:51.244Z,10.00
2022-12-31T09:54:21.176Z,10.10
2022-12-31T09:57:23.890Z,10.20
2022-12-31T10:00:12.538Z,10.30
2022-12-31T10:03:31.601Z,10.48
2022-12-31T10:06:27.017Z,10.70
2022-12-31T10:09:47.828Z,10.80
2022-12-31T10:13:14.413Z,11.00
2022-12-31T10:16:30.872Z,11.10
2022-12-31T10:19:57.121Z,11.20
2022-12-31T10:23:05.623Z,11.34
2022-12-31T10:26:24.815Z,11.50
2022-12-31T10:29:16.193Z,11.60
2022-12-31T10:32:14.296Z,11.78
2022-12-31T10:35:13.875Z,11.90
2022-12-31T10:38:04.571Z,12.00
2022-12-31T10:41:37.882Z,12.10
2022-12-31T10:45:16.120Z,12.20
2022-12-31T10:48:55.667Z,12.40
2022-12-31T10:52:09.958Z,12.50
2022-12-31T10:59:40.812Z,12.78
2022-12-31T11:03:09.663Z,12.90
2022-12-31T11:06:50.785Z,13.00
2022-12-31T11:10:13.221Z,13.10
2022-12-31T11:13:56.887Z,13.20
2022-12-31T11:17:15.322Z,13.20
2022-12-31T11:20:15.935Z,13.30
2022-12-31T11:23:13.914Z,13.30
2022-12-31T11:26:08.038Z,13.40
2022-12-31T11:29:10.636Z,13.40
2022-12-31T11:32:16.511Z,13.50
2022-12-31T11:35:58.299Z,13.50
2022-12-31T11:38:44.820Z,13.50
2022-12-31T11:41:36.537Z,13.40
2022-12-31T11:44:33.783Z,13.40
2022-12-31T11:48:28.689Z,13.30
2022-12-31T11:51:02.818Z,13.20
2022-12-31T11:54:28.199Z,13.10
2022-12-31T11:57:18.695Z,13.02
2022-12-31T12:00:00.803Z,13.00
2022-12-31T12:02:44.654Z,12.98
2022-12-31T12:05:26.064Z,12.90
2022-12-31T12:08:02.940Z,12.90
2022-12-31T12:10:46.443Z,12.90
2022-12-31T12:13:30.039Z,12.84
2022-12-31T12:16:11.359Z,12.80
2022-12-31T12:18:51.447Z,12.80
2022-12-31T12:21:30.257Z,12.70
2022-12-31T12:24:21.501Z,12.70
2022-12-31T12:26:59.024Z,12.70
2022-12-31T12:29:41.271Z,12.70
2022-12-31T12:32:25.996Z,12.70
2022-12-31T12:35:02.579Z,12.70
2022-12-31T12:37:39.657Z,12.70
2022-12-31T12:40:33.392Z,12.70
2022-12-31T12:43:26.664Z,12.72
2022-12-31T12:46:08.606Z,12.70
2022-12-31T12:48:46.053Z,12.74
2022-12-31T12:51:44.797Z,12.74
2022-12-31T12:54:43.027Z,12.70
2022-12-31T12:57:30.461Z,12.70
2022-12-31T13:00:20.088Z,12.70
2022-12-31T13:03:29.043Z,12.70
2022-12-31T13:06:37.028Z,12.78
2022-12-31T13:09:38.702Z,12.74
2022-12-31T13:12:48.904Z,12.72
2022-12-31T13:15:37.054Z,12.70
2022-12-31T13:18:35.615Z,12.70
2022-12-31T13:21:37.156Z,12.70
2022-12-31T13:24:32.790Z,12.62
2022-12-31T13:27:20.485Z,12.60
2022-12-31T13:30:00.439Z,12.60
2022-12-31T13:32:47.036Z,12.54
2022-12-31T13:35:32.463Z,12.50
2022-12-31T13:38:18.942Z,12.50
2022-12-31T13:41:05.335Z,12.46
2022-12-31T13:43:53.125Z,12.40
2022-12-31T13:46:46.144Z,12.40
2022-12-31T13:49:31.701Z,12.30
2022-12-31T13:52:28.613Z,12.30
2022-12-31T13:55:16.821Z,12.20
2022-12-31T13:57:59.433Z,12.20
2022-12-31T14:00:45.321Z,12.14
2022-12-31T14:03:35.872Z,12.10
2022-12-31T14:06:26.525Z,12.00
2022-12-31T14:09:03.884Z,12.00
2022-12-31T14:12:07.369Z,12.00
2022-12-31T14:15:00.889Z,11.90
2022-12-31T14:17:51.897Z,11.90
2022-12-31T14:20:42.844Z,11.90
2022-12-31T14:23:36.118Z,11.82
2022-12-31T14:26:20.880Z,11.80
2022-12-31T14:29:16.039Z,11.80
2022-12-31T14:32:26.162Z,11.80
2022-12-31T14:35:33.599Z,11.80
2022-12-31T14:38:32.211Z,11.72
2022-12-31T14:41:29.356Z,11.70
2022-12-31T14:44:26.553Z,11.70
2022-12-31T14:47:22.832Z,11.60
2022-12-31T14:50:13.851Z,11.50
2022-12-31T14:53:17.781Z,11.48
2022-12-31T14:56:04.300Z,11.40
2022-12-31T14:58:44.083Z,11.30
2022-12-31T15:01:27.309Z,11.26
2022-12-31T15:04:03.798Z,11.20
2022-12-31T15:07:06.646Z,11.10
2022-12-31T15:10:14.531Z,11.10
2022-12-31T15:13:08.892Z,11.10
2022-12-31T15:16:12.596Z,11.00
2022-12-31T15:19:38.979Z,11.00
2022-12-31T15:22:41.734Z,10.90
2022-12-31T15:25:40.293Z,10.90
2022-12-31T15:28:39.643Z,10.80
2022-12-31T15:31:23.506Z,10.80
2022-12-31T15:34:08.439Z,10.72
2022-12-31T15:36:58.430Z,10.70
2022-12-31T15:39:47.800Z,10.70
2022-12-31T15:42:50.699Z,10.60
2022-12-31T15:45:37.894Z,10.58
2022-12-31T15:48:24.005Z,10.50
2022-12-31T15:51:03.745Z,10.50
2022-12-31T15:53:52.332Z,10.40
2022-12-31T15:56:40.635Z,10.40
2022-12-31T15:59:21.875Z,10.34
2022-12-31T16:01:59.994Z,10.30
2022-12-31T16:04:41.316Z,10.30
2022-12-31T16:07:18.295Z,10.30
2022-12-31T16:09:59.164Z,10.24
2022-12-31T16:12:44.310Z,10.20
2022-12-31T16:15:29.332Z,10.20
2022-12-31T16:18:20.641Z,10.12
2022-12-31T16:20:59.403Z,10.10
2022-12-31T16:23:42.179Z,10.10
2022-12-31T16:26:19.202Z,10.10
2022-12-31T16:29:00.033Z,10.02
2022-12-31T16:31:36.411Z,10.00
2022-12-31T16:34:19.264Z,10.00
2022-12-31T16:37:05.844Z,10.00
2022-12-31T16:40:18.728Z,10.00
2022-12-31T16:42:55.124Z,10.00
2022-12-31T16:45:39.037Z,9.94
2022-12-31T16:48:22.456Z,9.90
2022-12-31T16:51:01.162Z,9.90
2022-12-31T16:53:41.895Z,9.90
2022-12-31T16:56:37.562Z,9.90
2022-12-31T16:59:24.282Z,9.82
2022-12-31T17:02:04.979Z,9.80
2022-12-31T17:04:48.062Z,9.80
2022-12-31T17:07:46.886Z,9.80
2022-12-31T17:10:35.003Z,9.76
2022-12-31T17:13:32.297Z,9.70
2022-12-31T17:16:09.713Z,9.70
2022-12-31T17:18:48.498Z,9.70
2022-12-31T17:21:30.245Z,9.60
2022-12-31T17:24:09.788Z,9.60
2022-12-31T17:26:46.211Z,9.58
2022-12-31T17:29:26.723Z,9.50
2022-12-31T17:32:28.196Z,9.50
2022-12-31T17:35:24.721Z,9.50
2022-12-31T17:38:37.387Z,9.46
2022-12-31T17:41:28.445Z,9.40
2022-12-31T17:44:05.555Z,9.40
2022-12-31T17:46:43.473Z,9.40
2022-12-31T17:49:21.985Z,9.40
2022-12-31T17:51:58.698Z,9.48
2022-12-31T17:54:35.022Z,9.50
2022-12-31T17:57:25.863Z,9.52
2022-12-31T18:00:04.888Z,9.60
2022-12-31T18:02:48.742Z,9.70
2022-12-31T18:05:27.217Z,9.70
2022-12-31T18:08:06.335Z,9.80
2022-12-31T18:10:45.952Z,9.82
2022-12-31T18:13:28.174Z,9.90
2022-12-31T18:16:04.512Z,10.00
2022-12-31T18:18:42.138Z,10.00
2022-12-31T18:21:32.717Z,10.10
2022-12-31T18:24:16.669Z,10.10
2022-12-31T18:26:55.567Z,10.20
2022-12-31T18:29:32.078Z,10.24
2022-12-31T18:32:11.944Z,10.30
2022-12-31T18:34:48.452Z,10.30
2022-12-31T18:37:25.593Z,10.28
2022-12-31T18:40:02.060Z,10.28
2022-12-31T18:42:38.439Z,10.28
2022-12-31T18:45:21.906Z,10.22
2022-12-31T18:47:58.164Z,10.20
2022-12-31T18:50:34.734Z,10.20
2022-12-31T18:53:17.505Z,10.20
2022-12-31T18:55:55.566Z,10.20
2022-12-31T18:58:31.895Z,10.10
2022-12-31T19:01:11.189Z,10.10
2022-12-31T19:03:47.787Z,10.10
2022-12-31T19:06:24.776Z,10.10
2022-12-31T19:09:01.398Z,10.02
2022-12-31T19:11:38.006Z,10.00
2022-12-31T19:14:24.291Z,10.00
2022-12-31T19:19:36.527Z,9.90
2022-12-31T19:22:16.629Z,9.80
2022-12-31T19:24:52.901Z,9.64
2022-12-31T19:27:29.307Z,9.50
2022-12-31T19:30:06.464Z,9.40
2022-12-31T19:32:42.829Z,9.20
2022-12-31T19:35:20.581Z,9.10
2022-12-31T19:37:59.873Z,8.98
2022-12-31T19:40:36.421Z,8.80
2022-12-31T19:43:17.657Z,8.70
2022-12-31T19:45:54.736Z,8.60
2022-12-31T19:48:33.082Z,8.50
2022-12-31T19:51:14.228Z,8.40
2022-12-31T19:53:51.924Z,8.30
2022-12-31T19:56:28.701Z,8.20
2022-12-31T19:59:10.866Z,8.10
2022-12-31T20:01:47.405Z,8.00
2022-12-31T20:22:24.815Z,7.32
2022-12-31T20:25:01.180Z,7.20
2022-12-31T20:27:38.629Z,7.10
2022-12-31T20:31:27.686Z,7.10
2022-12-31T20:34:04.474Z,7.00
2022-12-31T20:36:41.842Z,6.90
2022-12-31T20:39:18.229Z,6.86
2022-12-31T20:41:55.036Z,6.80
2022-12-31T20:44:31.285Z,6.80
2022-12-31T20:47:10.601Z,6.70
2022-12-31T20:50:10.529Z,6.70
2022-12-31T20:52:44.700Z,6.60
2022-12-31T20:55:21.571Z,6.60
2022-12-31T20:58:00.636Z,6.50
2022-12-31T21:00:37.107Z,6.50
2022-12-31T21:03:30.438Z,6.50
2022-12-31T21:06:11.290Z,6.40
2022-12-31T21:08:48.091Z,6.40
2022-12-31T21:11:42.521Z,6.40
2022-12-31T21:14:19.243Z,6.30
2022-12-31T21:16:55.709Z,6.22
2022-12-31T21:19:31.986Z,6.20
2022-12-31T21:22:08.343Z,6.20
2022-12-31T21:24:44.832Z,6.20
2022-12-31T21:27:21.206Z,6.10
2022-12-31T21:32:56.560Z,6.00
2022-12-31T21:35:47.076Z,6.00
2022-12-31T21:38:30.542Z,5.96
2022-12-31T21:41:33.526Z,5.90
2022-12-31T21:44:10.606Z,5.90
2022-12-31T21:47:16.091Z,5.86
2022-12-31T21:49:43.461Z,5.80
2022-12-31T21:52:30.739Z,5.80
2022-12-31T21:55:30.191Z,5.80
2022-12-31T22:01:21.447Z,5.70
2022-12-31T22:03:57.866Z,5.70
2022-12-31T22:06:37.154Z,5.70
2022-12-31T22:09:13.471Z,5.70
2022-12-31T22:11:50.036Z,5.60
2022-12-31T22:14:26.408Z,5.60
2022-12-31T22:17:02.674Z,5.60
2022-12-31T22:20:00.862Z,5.60
2022-12-31T22:22:35.654Z,5.54
2022-12-31T22:25:13.827Z,5.50
2022-12-31T22:28:27.646Z,5.50
2022-12-31T22:30:51.563Z,5.50
2022-12-31T22:33:28.140Z,5.50
2022-12-31T22:36:08.436Z,5.50
2022-12-31T22:38:45.207Z,5.50
2022-12-31T22:41:24.399Z,5.44
2022-12-31T22:44:04.959Z,5.40
2022-12-31T22:46:42.255Z,5.40
2022-12-31T22:49:20.240Z,5.40
2022-12-31T22:52:00.770Z,5.40
2022-12-31T22:54:39.420Z,5.40
2022-12-31T22:57:19.988Z,5.40
2022-12-31T22:59:56.876Z,5.40
2022-12-31T23:02:38.412Z,5.40
2022-12-31T23:05:18.587Z,5.40
2022-12-31T23:07:55.184Z,5.40
2022-12-31T23:11:00.472Z,5.42
2022-12-31T23:14:01.339Z,5.50
2022-12-31T23:16:55.018Z,5.50
2022-12-31T23:19:49.090Z,5.50
2022-12-31T23:22:42.825Z,5.50
2022-12-31T23:25:20.335Z,5.50
2022-12-31T23:27:57.099Z,5.58
2022-12-31T23:30:33.463Z,5.60
2022-12-31T23:33:14.595Z,5.60
2022-12-31T23:35:51.100Z,5.52
2022-12-31T23:38:27.437Z,5.60
2022-12-31T23:41:11.950Z,5.58
2022-12-31T23:43:48.599Z,5.60
2022-12-31T23:46:24.963Z,5.60
2022-12-31T23:49:01.302Z,5.60
2022-12-31T23:51:38.315Z,5.60
2022-12-31T23:54:15.958Z,5.60
2022-12-31T23:56:52.231Z,5.60
2022-12-31T23:59:29.243Z,5.54
